sensor_id;sensor_type;location;lat;lon;timestamp;temperature;humidity
9949;DHT22;5013;51.840;8.276;2022-12-10T00:00:19;-0.60;99.90
9949;DHT22;5013;51.840;8.276;2022-12-10T00:02:45;-0.60;99.90
9949;DHT22;5013;51.840;8.276;2022-12-10T00:05:10;-0.50;99.90
9949;DHT22;5013;51.840;8.276;2022-12-10T00:07:36;-0.50;99.90
9949;DHT22;5013;51.840;8.276;2022-12-10T00:10:02;-0.50;99.90
9949;DHT22;5013;51.840;8.276;2022-12-10T00:12:27;-0.50;99.90
9949;DHT22;5013;51.840;8.276;2022-12-10T00:14:53;-0.50;99.90
9949;DHT22;5013;51.840;8.276;2022-12-10T00:17:18;-0.50;99.90
9949;DHT22;5013;51.840;8.276;2022-12-10T00:19:44;-0.50;99.90
9949;DHT22;5013;51.840;8.276;2022-12-10T00:22:10;-0.50;99.90
9949;DHT22;5013;51.840;8.276;2022-12-10T00:24:35;-0.50;99.90
9949;DHT22;5013;51.840;8.276;2022-12-10T00:27:01;-0.50;99.90
9949;DHT22;5013;51.840;8.276;2022-12-10T00:29:27;-0.40;99.90
9949;DHT22;5013;51.840;8.276;2022-12-10T00:31:52;-0.40;99.90
9949;DHT22;5013;51.840;8.276;2022-12-10T00:34:18;-0.40;99.90
9949;DHT22;5013;51.840;8.276;2022-12-10T00:36:46;-0.40;99.90
9949;DHT22;5013;51.840;8.276;2022-12-10T00:39:14;-0.40;99.90
9949;DHT22;5013;51.840;8.276;2022-12-10T00:41:40;-0.30;99.90
9949;DHT22;5013;51.840;8.276;2022-12-10T00:44:06;-0.30;99.90
9949;DHT22;5013;51.840;8.276;2022-12-10T00:46:32;-0.20;99.90
9949;DHT22;5013;51.840;8.276;2022-12-10T00:48:58;-0.30;99.90
9949;DHT22;5013;51.840;8.276;2022-12-10T00:51:26;-0.20;99.90
9949;DHT22;5013;51.840;8.276;2022-12-10T00:53:53;-0.20;99.90
9949;DHT22;5013;51.840;8.276;2022-12-10T00:56:24;-0.10;99.90
9949;DHT22;5013;51.840;8.276;2022-12-10T00:58:51;-0.10;99.90
9949;DHT22;5013;51.840;8.276;2022-12-10T01:03:53;-0.10;99.90
9949;DHT22;5013;51.840;8.276;2022-12-10T01:06:23;0.00;99.90
9949;DHT22;5013;51.840;8.276;2022-12-10T01:08:50;0.00;99.90
9949;DHT22;5013;51.840;8.276;2022-12-10T01:11:18;0.00;99.90
9949;DHT22;5013;51.840;8.276;2022-12-10T01:13:45;0.00;99.90
9949;DHT22;5013;51.840;8.276;2022-12-10T01:16:13;0.00;99.90
9949;DHT22;5013;51.840;8.276;2022-12-10T01:18:40;0.10;99.90
9949;DHT22;5013;51.840;8.276;2022-12-10T01:21:08;0.10;99.90
9949;DHT22;5013;51.840;8.276;2022-12-10T01:26:58;0.10;99.90
9949;DHT22;5013;51.840;8.276;2022-12-10T01:29:24;0.10;99.90
9949;DHT22;5013;51.840;8.276;2022-12-10T01:31:54;0.10;99.90
9949;DHT22;5013;51.840;8.276;2022-12-10T01:34:19;0.10;99.90
9949;DHT22;5013;51.840;8.276;2022-12-10T01:36:49;0.20;99.90
9949;DHT22;5013;51.840;8.276;2022-12-10T01:39:16;0.10;99.90
9949;DHT22;5013;51.840;8.276;2022-12-10T01:41:46;0.20;99.90
9949;DHT22;5013;51.840;8.276;2022-12-10T01:46:40;0.10;99.90
9949;DHT22;5013;51.840;8.276;2022-12-10T01:49:12;0.10;99.90
9949;DHT22;5013;51.840;8.276;2022-12-10T01:51:39;0.10;99.90
9949;DHT22;5013;51.840;8.276;2022-12-10T01:54:09;0.10;99.90
9949;DHT22;5013;51.840;8.276;2022-12-10T01:56:41;0.10;99.90
9949;DHT22;5013;51.840;8.276;2022-12-10T01:59:07;0.10;99.90
9949;DHT22;5013;51.840;8.276;2022-12-10T02:09:48;0.00;99.90
9949;DHT22;5013;51.840;8.276;2022-12-10T02:12:33;0.10;99.90
9949;DHT22;5013;51.840;8.276;2022-12-10T02:15:12;0.10;99.90
9949;DHT22;5013;51.840;8.276;2022-12-10T02:20:46;0.20;99.90
9949;DHT22;5013;51.840;8.276;2022-12-10T02:23:14;0.30;99.90
9949;DHT22;5013;51.840;8.276;2022-12-10T02:30:57;0.20;99.90
9949;DHT22;5013;51.840;8.276;2022-12-10T02:33:24;0.20;99.90
9949;DHT22;5013;51.840;8.276;2022-12-10T02:35:53;0.20;99.90
9949;DHT22;5013;51.840;8.276;2022-12-10T02:38:33;0.20;99.90
9949;DHT22;5013;51.840;8.276;2022-12-10T02:41:03;0.20;99.90
9949;DHT22;5013;51.840;8.276;2022-12-10T02:43:30;0.20;99.90
9949;DHT22;5013;51.840;8.276;2022-12-10T02:45:59;0.20;99.90
9949;DHT22;5013;51.840;8.276;2022-12-10T02:48:26;0.20;99.90
9949;DHT22;5013;51.840;8.276;2022-12-10T02:50:52;0.30;99.90
9949;DHT22;5013;51.840;8.276;2022-12-10T02:53:18;0.20;99.90
9949;DHT22;5013;51.840;8.276;2022-12-10T02:59:10;0.30;99.90
9949;DHT22;5013;51.840;8.276;2022-12-10T03:02:19;0.30;99.90
9949;DHT22;5013;51.840;8.276;2022-12-10T03:04:58;0.30;99.90
9949;DHT22;5013;51.840;8.276;2022-12-10T03:07:37;0.20;99.90
9949;DHT22;5013;51.840;8.276;2022-12-10T03:10:20;0.20;99.90
9949;DHT22;5013;51.840;8.276;2022-12-10T03:12:57;0.20;99.90
9949;DHT22;5013;51.840;8.276;2022-12-10T03:15:25;0.20;99.90
9949;DHT22;5013;51.840;8.276;2022-12-10T03:17:53;0.10;99.90
9949;DHT22;5013;51.840;8.276;2022-12-10T03:20:20;0.10;99.90
9949;DHT22;5013;51.840;8.276;2022-12-10T03:22:47;0.10;99.90
9949;DHT22;5013;51.840;8.276;2022-12-10T03:25:17;0.10;99.90
9949;DHT22;5013;51.840;8.276;2022-12-10T03:27:45;0.20;99.90
9949;DHT22;5013;51.840;8.276;2022-12-10T03:30:15;0.20;99.90
9949;DHT22;5013;51.840;8.276;2022-12-10T03:32:42;0.20;99.90
9949;DHT22;5013;51.840;8.276;2022-12-10T03:35:09;0.30;99.90
9949;DHT22;5013;51.840;8.276;2022-12-10T03:37:35;0.40;99.90
9949;DHT22;5013;51.840;8.276;2022-12-10T03:40:02;0.50;99.90
9949;DHT22;5013;51.840;8.276;2022-12-10T03:42:28;0.40;99.90
9949;DHT22;5013;51.840;8.276;2022-12-10T03:44:54;0.40;99.90
9949;DHT22;5013;51.840;8.276;2022-12-10T03:47:20;0.40;99.90
9949;DHT22;5013;51.840;8.276;2022-12-10T03:49:46;0.40;99.90
9949;DHT22;5013;51.840;8.276;2022-12-10T03:52:12;0.30;99.90
9949;DHT22;5013;51.840;8.276;2022-12-10T03:54:38;0.30;99.90
9949;DHT22;5013;51.840;8.276;2022-12-10T03:57:03;0.10;99.90
9949;DHT22;5013;51.840;8.276;2022-12-10T03:59:29;0.10;99.90
9949;DHT22;5013;51.840;8.276;2022-12-10T04:01:55;0.10;99.90
9949;DHT22;5013;51.840;8.276;2022-12-10T04:04:20;0.00;99.90
9949;DHT22;5013;51.840;8.276;2022-12-10T04:06:46;0.00;99.90
9949;DHT22;5013;51.840;8.276;2022-12-10T04:09:13;0.10;99.90
9949;DHT22;5013;51.840;8.276;2022-12-10T04:11:39;0.20;99.90
9949;DHT22;5013;51.840;8.276;2022-12-10T04:14:05;0.20;99.90
9949;DHT22;5013;51.840;8.276;2022-12-10T04:16:49;0.20;99.90
9949;DHT22;5013;51.840;8.276;2022-12-10T04:19:17;0.20;99.90
9949;DHT22;5013;51.840;8.276;2022-12-10T04:21:43;0.10;99.90
9949;DHT22;5013;51.840;8.276;2022-12-10T04:24:32;0.10;99.90
9949;DHT22;5013;51.840;8.276;2022-12-10T04:27:38;0.10;99.90
9949;DHT22;5013;51.840;8.276;2022-12-10T04:30:07;0.10;99.90
9949;DHT22;5013;51.840;8.276;2022-12-10T04:32:33;0.10;99.90
9949;DHT22;5013;51.840;8.276;2022-12-10T04:34:59;0.10;99.90
9949;DHT22;5013;51.840;8.276;2022-12-10T04:37:26;0.10;99.90
9949;DHT22;5013;51.840;8.276;2022-12-10T04:39:52;0.10;99.90
9949;DHT22;5013;51.840;8.276;2022-12-10T04:42:18;0.10;99.90
9949;DHT22;5013;51.840;8.276;2022-12-10T04:44:44;0.20;99.90
9949;DHT22;5013;51.840;8.276;2022-12-10T04:47:10;0.30;99.90
9949;DHT22;5013;51.840;8.276;2022-12-10T04:52:58;0.20;99.90
9949;DHT22;5013;51.840;8.276;2022-12-10T04:55:23;0.10;99.90
9949;DHT22;5013;51.840;8.276;2022-12-10T04:57:49;0.10;99.90
9949;DHT22;5013;51.840;8.276;2022-12-10T05:00:14;0.10;99.90
9949;DHT22;5013;51.840;8.276;2022-12-10T05:02:40;0.10;99.90
9949;DHT22;5013;51.840;8.276;2022-12-10T05:05:06;0.20;99.90
9949;DHT22;5013;51.840;8.276;2022-12-10T05:07:32;0.20;99.90
9949;DHT22;5013;51.840;8.276;2022-12-10T05:09:58;0.20;99.90
9949;DHT22;5013;51.840;8.276;2022-12-10T05:12:23;0.20;99.90
9949;DHT22;5013;51.840;8.276;2022-12-10T05:14:49;0.20;99.90
9949;DHT22;5013;51.840;8.276;2022-12-10T05:17:15;0.30;99.90
9949;DHT22;5013;51.840;8.276;2022-12-10T05:19:40;0.30;99.90
9949;DHT22;5013;51.840;8.276;2022-12-10T05:22:07;0.30;99.90
9949;DHT22;5013;51.840;8.276;2022-12-10T05:24:51;0.40;99.90
9949;DHT22;5013;51.840;8.276;2022-12-10T05:27:17;0.30;99.90
9949;DHT22;5013;51.840;8.276;2022-12-10T05:29:42;0.30;99.90
9949;DHT22;5013;51.840;8.276;2022-12-10T05:32:08;0.20;99.90
9949;DHT22;5013;51.840;8.276;2022-12-10T05:34:33;0.20;99.90
9949;DHT22;5013;51.840;8.276;2022-12-10T05:36:59;0.20;99.90
9949;DHT22;5013;51.840;8.276;2022-12-10T05:39:24;0.20;99.90
9949;DHT22;5013;51.840;8.276;2022-12-10T05:41:50;0.30;99.90
9949;DHT22;5013;51.840;8.276;2022-12-10T05:44:16;0.20;99.90
9949;DHT22;5013;51.840;8.276;2022-12-10T05:46:41;0.20;99.90
9949;DHT22;5013;51.840;8.276;2022-12-10T05:49:07;0.30;99.90
9949;DHT22;5013;51.840;8.276;2022-12-10T05:54:54;0.30;99.90
9949;DHT22;5013;51.840;8.276;2022-12-10T05:57:20;0.30;99.90
9949;DHT22;5013;51.840;8.276;2022-12-10T05:59:46;0.30;99.90
9949;DHT22;5013;51.840;8.276;2022-12-10T06:02:11;0.20;99.90
9949;DHT22;5013;51.840;8.276;2022-12-10T06:04:37;0.10;99.90
9949;DHT22;5013;51.840;8.276;2022-12-10T06:07:02;0.20;99.90
9949;DHT22;5013;51.840;8.276;2022-12-10T06:09:28;0.10;99.90
9949;DHT22;5013;51.840;8.276;2022-12-10T06:11:53;0.10;99.90
9949;DHT22;5013;51.840;8.276;2022-12-10T06:14:19;0.20;99.90
9949;DHT22;5013;51.840;8.276;2022-12-10T06:16:45;0.20;99.90
9949;DHT22;5013;51.840;8.276;2022-12-10T06:19:10;0.20;99.90
9949;DHT22;5013;51.840;8.276;2022-12-10T06:21:36;0.20;99.90
9949;DHT22;5013;51.840;8.276;2022-12-10T06:24:02;0.20;99.90
9949;DHT22;5013;51.840;8.276;2022-12-10T06:26:28;0.40;99.90
9949;DHT22;5013;51.840;8.276;2022-12-10T06:28:54;0.30;99.90
9949;DHT22;5013;51.840;8.276;2022-12-10T06:31:21;0.30;99.90
9949;DHT22;5013;51.840;8.276;2022-12-10T06:33:47;0.20;99.90
9949;DHT22;5013;51.840;8.276;2022-12-10T06:36:16;0.20;99.90
9949;DHT22;5013;51.840;8.276;2022-12-10T06:38:42;0.30;99.90
9949;DHT22;5013;51.840;8.276;2022-12-10T06:41:10;0.20;99.90
9949;DHT22;5013;51.840;8.276;2022-12-10T06:43:36;0.20;99.90
9949;DHT22;5013;51.840;8.276;2022-12-10T06:46:10;0.20;99.90
9949;DHT22;5013;51.840;8.276;2022-12-10T06:48:36;0.20;99.90
9949;DHT22;5013;51.840;8.276;2022-12-10T06:51:03;0.20;99.90
9949;DHT22;5013;51.840;8.276;2022-12-10T06:53:29;0.20;99.90
9949;DHT22;5013;51.840;8.276;2022-12-10T06:59:17;0.20;99.90
9949;DHT22;5013;51.840;8.276;2022-12-10T07:01:42;0.30;99.90
9949;DHT22;5013;51.840;8.276;2022-12-10T07:04:08;0.30;99.90
9949;DHT22;5013;51.840;8.276;2022-12-10T07:06:34;0.30;99.90
9949;DHT22;5013;51.840;8.276;2022-12-10T07:09:01;0.30;99.90
9949;DHT22;5013;51.840;8.276;2022-12-10T07:11:27;0.30;99.90
9949;DHT22;5013;51.840;8.276;2022-12-10T07:13:52;0.30;99.90
9949;DHT22;5013;51.840;8.276;2022-12-10T07:16:24;0.40;99.90
9949;DHT22;5013;51.840;8.276;2022-12-10T07:22:12;0.40;99.90
9949;DHT22;5013;51.840;8.276;2022-12-10T07:24:38;0.50;99.90
9949;DHT22;5013;51.840;8.276;2022-12-10T07:27:08;0.30;99.90
9949;DHT22;5013;51.840;8.276;2022-12-10T07:29:34;0.40;99.90
9949;DHT22;5013;51.840;8.276;2022-12-10T07:32:00;0.30;99.90
9949;DHT22;5013;51.840;8.276;2022-12-10T07:34:26;0.40;99.90
9949;DHT22;5013;51.840;8.276;2022-12-10T07:36:52;0.30;99.90
9949;DHT22;5013;51.840;8.276;2022-12-10T07:39:18;0.30;99.90
9949;DHT22;5013;51.840;8.276;2022-12-10T07:41:46;0.30;99.90
9949;DHT22;5013;51.840;8.276;2022-12-10T07:44:12;0.20;99.90
9949;DHT22;5013;51.840;8.276;2022-12-10T07:53:11;0.30;99.90
9949;DHT22;5013;51.840;8.276;2022-12-10T07:55:37;0.30;99.90
9949;DHT22;5013;51.840;8.276;2022-12-10T07:58:03;0.30;99.90
9949;DHT22;5013;51.840;8.276;2022-12-10T08:00:28;0.40;99.90
9949;DHT22;5013;51.840;8.276;2022-12-10T08:06:19;0.30;99.90
9949;DHT22;5013;51.840;8.276;2022-12-10T08:08:45;0.30;99.90
9949;DHT22;5013;51.840;8.276;2022-12-10T08:11:13;0.30;99.90
9949;DHT22;5013;51.840;8.276;2022-12-10T08:13:38;0.30;99.90
9949;DHT22;5013;51.840;8.276;2022-12-10T08:16:07;0.30;99.90
9949;DHT22;5013;51.840;8.276;2022-12-10T08:18:33;0.30;99.90
9949;DHT22;5013;51.840;8.276;2022-12-10T08:21:06;0.30;99.90
9949;DHT22;5013;51.840;8.276;2022-12-10T08:23:33;0.30;99.90
9949;DHT22;5013;51.840;8.276;2022-12-10T08:26:05;0.30;99.90
9949;DHT22;5013;51.840;8.276;2022-12-10T08:28:34;0.30;99.90
9949;DHT22;5013;51.840;8.276;2022-12-10T08:31:03;0.30;99.90
9949;DHT22;5013;51.840;8.276;2022-12-10T08:33:36;0.30;99.90
9949;DHT22;5013;51.840;8.276;2022-12-10T08:36:08;0.40;99.90
9949;DHT22;5013;51.840;8.276;2022-12-10T08:38:36;0.40;99.90
9949;DHT22;5013;51.840;8.276;2022-12-10T08:41:08;0.40;99.90
9949;DHT22;5013;51.840;8.276;2022-12-10T08:46:57;0.40;99.90
9949;DHT22;5013;51.840;8.276;2022-12-10T08:49:27;0.50;99.90
9949;DHT22;5013;51.840;8.276;2022-12-10T08:51:53;0.40;99.90
9949;DHT22;5013;51.840;8.276;2022-12-10T08:54:19;0.50;99.90
9949;DHT22;5013;51.840;8.276;2022-12-10T08:56:44;0.50;99.90
9949;DHT22;5013;51.840;8.276;2022-12-10T08:59:10;0.60;99.90
9949;DHT22;5013;51.840;8.276;2022-12-10T09:01:36;0.60;99.90
9949;DHT22;5013;51.840;8.276;2022-12-10T09:04:01;0.70;99.90
9949;DHT22;5013;51.840;8.276;2022-12-10T09:06:28;0.80;99.90
9949;DHT22;5013;51.840;8.276;2022-12-10T09:08:54;0.80;99.90
9949;DHT22;5013;51.840;8.276;2022-12-10T09:11:23;0.80;99.90
9949;DHT22;5013;51.840;8.276;2022-12-10T09:13:49;0.80;99.90
9949;DHT22;5013;51.840;8.276;2022-12-10T09:16:15;0.80;99.90
9949;DHT22;5013;51.840;8.276;2022-12-10T09:18:41;0.80;99.90
9949;DHT22;5013;51.840;8.276;2022-12-10T09:24:28;0.90;99.90
9949;DHT22;5013;51.840;8.276;2022-12-10T09:26:54;0.90;99.90
9949;DHT22;5013;51.840;8.276;2022-12-10T09:29:19;0.90;99.90
9949;DHT22;5013;51.840;8.276;2022-12-10T09:31:50;0.80;99.90
9949;DHT22;5013;51.840;8.276;2022-12-10T09:34:16;0.80;99.90
9949;DHT22;5013;51.840;8.276;2022-12-10T09:36:41;0.90;99.90
9949;DHT22;5013;51.840;8.276;2022-12-10T09:48:29;0.90;99.90
9949;DHT22;5013;51.840;8.276;2022-12-10T09:51:16;1.00;99.90
9949;DHT22;5013;51.840;8.276;2022-12-10T09:53:46;1.00;99.90
9949;DHT22;5013;51.840;8.276;2022-12-10T09:56:21;1.10;99.90
9949;DHT22;5013;51.840;8.276;2022-12-10T09:58:48;1.10;99.90
9949;DHT22;5013;51.840;8.276;2022-12-10T10:04:35;1.30;99.90
9949;DHT22;5013;51.840;8.276;2022-12-10T10:19:01;1.60;99.90
9949;DHT22;5013;51.840;8.276;2022-12-10T10:21:35;1.60;99.90
9949;DHT22;5013;51.840;8.276;2022-12-10T10:24:02;1.60;1.00
9949;DHT22;5013;51.840;8.276;2022-12-10T10:26:28;1.60;1.00
9949;DHT22;5013;51.840;8.276;2022-12-10T10:29:05;1.70;99.90
9949;DHT22;5013;51.840;8.276;2022-12-10T10:31:33;1.80;1.00
9949;DHT22;5013;51.840;8.276;2022-12-10T10:37:26;1.80;99.90
9949;DHT22;5013;51.840;8.276;2022-12-10T10:39:57;1.70;1.00
9949;DHT22;5013;51.840;8.276;2022-12-10T10:42:43;1.70;1.00
9949;DHT22;5013;51.840;8.276;2022-12-10T10:48:15;1.70;1.00
9949;DHT22;5013;51.840;8.276;2022-12-10T10:50:53;1.70;1.00
9949;DHT22;5013;51.840;8.276;2022-12-10T10:53:49;1.80;27.10
9949;DHT22;5013;51.840;8.276;2022-12-10T10:56:40;1.80;1.00
9949;DHT22;5013;51.840;8.276;2022-12-10T11:01:45;1.80;99.90
9949;DHT22;5013;51.840;8.276;2022-12-10T11:04:13;1.80;99.90
9949;DHT22;5013;51.840;8.276;2022-12-10T11:06:43;1.60;1.00
9949;DHT22;5013;51.840;8.276;2022-12-10T11:09:22;1.60;1.00
9949;DHT22;5013;51.840;8.276;2022-12-10T11:11:51;1.70;99.90
9949;DHT22;5013;51.840;8.276;2022-12-10T11:14:25;1.70;99.90
9949;DHT22;5013;51.840;8.276;2022-12-10T11:17:00;1.80;1.00
9949;DHT22;5013;51.840;8.276;2022-12-10T11:19:26;1.80;99.90
9949;DHT22;5013;51.840;8.276;2022-12-10T11:21:52;1.80;99.90
9949;DHT22;5013;51.840;8.276;2022-12-10T11:24:19;1.90;99.90
9949;DHT22;5013;51.840;8.276;2022-12-10T11:37:49;2.40;1.00
9949;DHT22;5013;51.840;8.276;2022-12-10T11:44:16;2.40;99.90
9949;DHT22;5013;51.840;8.276;2022-12-10T11:47:26;2.20;56.30
9949;DHT22;5013;51.840;8.276;2022-12-10T11:52:57;2.30;99.90
9949;DHT22;5013;51.840;8.276;2022-12-10T11:58:57;2.20;1.00
9949;DHT22;5013;51.840;8.276;2022-12-10T12:10:17;2.00;99.90
9949;DHT22;5013;51.840;8.276;2022-12-10T12:12:59;2.10;99.90
9949;DHT22;5013;51.840;8.276;2022-12-10T12:18:27;2.20;99.90
9949;DHT22;5013;51.840;8.276;2022-12-10T12:20:58;2.10;99.90
9949;DHT22;5013;51.840;8.276;2022-12-10T12:23:43;2.10;99.90
9949;DHT22;5013;51.840;8.276;2022-12-10T12:26:15;2.10;99.90
9949;DHT22;5013;51.840;8.276;2022-12-10T12:28:55;2.10;99.90
9949;DHT22;5013;51.840;8.276;2022-12-10T12:31:31;2.00;99.90
9949;DHT22;5013;51.840;8.276;2022-12-10T12:34:24;2.10;99.90
9949;DHT22;5013;51.840;8.276;2022-12-10T12:36:52;2.10;1.00
9949;DHT22;5013;51.840;8.276;2022-12-10T12:51:10;2.20;1.00
9949;DHT22;5013;51.840;8.276;2022-12-10T12:53:38;2.00;99.90
9949;DHT22;5013;51.840;8.276;2022-12-10T12:59:16;2.20;99.90
9949;DHT22;5013;51.840;8.276;2022-12-10T13:01:58;2.20;99.90
9949;DHT22;5013;51.840;8.276;2022-12-10T13:04:27;2.20;1.00
9949;DHT22;5013;51.840;8.276;2022-12-10T13:10:29;2.20;1.00
9949;DHT22;5013;51.840;8.276;2022-12-10T13:12:48;2.20;1.00
9949;DHT22;5013;51.840;8.276;2022-12-10T13:15:36;2.10;1.00
9949;DHT22;5013;51.840;8.276;2022-12-10T13:18:17;2.20;1.00
9949;DHT22;5013;51.840;8.276;2022-12-10T13:20:51;2.30;1.00
9949;DHT22;5013;51.840;8.276;2022-12-10T13:37:04;2.10;1.00
9949;DHT22;5013;51.840;8.276;2022-12-10T13:47:42;2.00;1.00
9949;DHT22;5013;51.840;8.276;2022-12-10T14:01:47;1.80;99.90
9949;DHT22;5013;51.840;8.276;2022-12-10T14:04:33;1.80;1.00
9949;DHT22;5013;51.840;8.276;2022-12-10T14:07:07;1.80;99.90
9949;DHT22;5013;51.840;8.276;2022-12-10T14:09:45;1.90;1.00
9949;DHT22;5013;51.840;8.276;2022-12-10T14:12:17;1.80;1.00
9949;DHT22;5013;51.840;8.276;2022-12-10T14:14:47;1.90;99.90
9949;DHT22;5013;51.840;8.276;2022-12-10T14:17:38;1.80;1.00
9949;DHT22;5013;51.840;8.276;2022-12-10T14:20:07;1.80;99.90
9949;DHT22;5013;51.840;8.276;2022-12-10T14:22:38;1.70;1.00
9949;DHT22;5013;51.840;8.276;2022-12-10T14:25:10;1.70;1.00
9949;DHT22;5013;51.840;8.276;2022-12-10T14:27:37;1.60;99.90
9949;DHT22;5013;51.840;8.276;2022-12-10T14:32:37;1.60;1.00
9949;DHT22;5013;51.840;8.276;2022-12-10T14:35:06;1.60;1.00
9949;DHT22;5013;51.840;8.276;2022-12-10T14:37:35;1.50;1.00
9949;DHT22;5013;51.840;8.276;2022-12-10T14:40:04;1.50;98.90
9949;DHT22;5013;51.840;8.276;2022-12-10T14:42:30;1.50;1.00
9949;DHT22;5013;51.840;8.276;2022-12-10T14:44:59;1.40;1.00
9949;DHT22;5013;51.840;8.276;2022-12-10T14:47:26;1.40;1.00
9949;DHT22;5013;51.840;8.276;2022-12-10T14:49:55;1.40;1.00
9949;DHT22;5013;51.840;8.276;2022-12-10T14:52:31;1.40;1.00
9949;DHT22;5013;51.840;8.276;2022-12-10T14:54:58;1.30;1.00
9949;DHT22;5013;51.840;8.276;2022-12-10T14:57:34;1.20;1.00
9949;DHT22;5013;51.840;8.276;2022-12-10T15:00:05;1.30;1.00
9949;DHT22;5013;51.840;8.276;2022-12-10T15:02:37;1.30;1.00
9949;DHT22;5013;51.840;8.276;2022-12-10T15:05:19;1.30;1.00
9949;DHT22;5013;51.840;8.276;2022-12-10T15:07:56;1.30;1.00
9949;DHT22;5013;51.840;8.276;2022-12-10T15:10:35;1.30;1.00
9949;DHT22;5013;51.840;8.276;2022-12-10T15:13:02;1.40;1.00
9949;DHT22;5013;51.840;8.276;2022-12-10T15:15:33;1.30;1.00
9949;DHT22;5013;51.840;8.276;2022-12-10T15:18:09;1.30;1.00
9949;DHT22;5013;51.840;8.276;2022-12-10T15:20:50;1.30;1.00
9949;DHT22;5013;51.840;8.276;2022-12-10T15:23:25;1.30;99.90
9949;DHT22;5013;51.840;8.276;2022-12-10T15:28:29;1.20;99.90
9949;DHT22;5013;51.840;8.276;2022-12-10T15:31:20;1.30;99.90
9949;DHT22;5013;51.840;8.276;2022-12-10T15:38:55;1.40;99.90
9949;DHT22;5013;51.840;8.276;2022-12-10T15:41:49;1.40;99.90
9949;DHT22;5013;51.840;8.276;2022-12-10T15:44:31;1.30;1.00
9949;DHT22;5013;51.840;8.276;2022-12-10T15:47:25;1.40;86.30
9949;DHT22;5013;51.840;8.276;2022-12-10T15:49:53;1.30;99.90
9949;DHT22;5013;51.840;8.276;2022-12-10T15:52:21;1.30;99.90
9949;DHT22;5013;51.840;8.276;2022-12-10T15:54:49;1.30;1.00
9949;DHT22;5013;51.840;8.276;2022-12-10T15:59:43;1.40;1.00
9949;DHT22;5013;51.840;8.276;2022-12-10T16:05:23;1.20;1.00
9949;DHT22;5013;51.840;8.276;2022-12-10T16:07:52;1.20;1.00
9949;DHT22;5013;51.840;8.276;2022-12-10T16:10:20;1.20;99.90
9949;DHT22;5013;51.840;8.276;2022-12-10T16:12:48;1.20;1.00
9949;DHT22;5013;51.840;8.276;2022-12-10T16:15:21;1.20;1.00
9949;DHT22;5013;51.840;8.276;2022-12-10T16:17:48;1.20;1.00
9949;DHT22;5013;51.840;8.276;2022-12-10T16:20:40;1.10;1.00
9949;DHT22;5013;51.840;8.276;2022-12-10T16:23:06;1.10;1.00
9949;DHT22;5013;51.840;8.276;2022-12-10T16:25:32;1.20;99.90
9949;DHT22;5013;51.840;8.276;2022-12-10T16:28:01;1.20;1.00
9949;DHT22;5013;51.840;8.276;2022-12-10T16:30:42;1.20;1.00
9949;DHT22;5013;51.840;8.276;2022-12-10T16:33:09;1.20;1.00
9949;DHT22;5013;51.840;8.276;2022-12-10T16:35:34;1.20;1.00
9949;DHT22;5013;51.840;8.276;2022-12-10T16:38:00;1.10;1.00
9949;DHT22;5013;51.840;8.276;2022-12-10T16:40:27;1.10;1.00
9949;DHT22;5013;51.840;8.276;2022-12-10T16:42:54;1.00;1.00
9949;DHT22;5013;51.840;8.276;2022-12-10T16:45:24;0.90;99.90
9949;DHT22;5013;51.840;8.276;2022-12-10T16:51:25;0.80;1.00
9949;DHT22;5013;51.840;8.276;2022-12-10T16:53:54;0.80;1.00
9949;DHT22;5013;51.840;8.276;2022-12-10T16:56:20;0.80;99.90
9949;DHT22;5013;51.840;8.276;2022-12-10T16:58:45;0.80;99.90
9949;DHT22;5013;51.840;8.276;2022-12-10T17:01:25;0.90;1.00
9949;DHT22;5013;51.840;8.276;2022-12-10T17:03:57;0.90;1.00
9949;DHT22;5013;51.840;8.276;2022-12-10T17:06:24;1.00;1.00
9949;DHT22;5013;51.840;8.276;2022-12-10T17:08:50;0.90;1.00
9949;DHT22;5013;51.840;8.276;2022-12-10T17:14:33;0.90;99.90
9949;DHT22;5013;51.840;8.276;2022-12-10T17:20:18;0.80;40.00
9949;DHT22;5013;51.840;8.276;2022-12-10T17:22:43;0.80;1.00
9949;DHT22;5013;51.840;8.276;2022-12-10T17:25:09;0.70;1.00
9949;DHT22;5013;51.840;8.276;2022-12-10T17:27:35;0.70;99.90
9949;DHT22;5013;51.840;8.276;2022-12-10T17:30:00;0.70;1.00
9949;DHT22;5013;51.840;8.276;2022-12-10T17:32:26;0.90;11.10
9949;DHT22;5013;51.840;8.276;2022-12-10T17:34:52;0.90;99.90
9949;DHT22;5013;51.840;8.276;2022-12-10T17:37:19;0.90;97.10
9949;DHT22;5013;51.840;8.276;2022-12-10T17:39:45;0.90;99.90
9949;DHT22;5013;51.840;8.276;2022-12-10T17:45:33;0.90;99.90
9949;DHT22;5013;51.840;8.276;2022-12-10T17:47:59;0.90;1.00
9949;DHT22;5013;51.840;8.276;2022-12-10T17:50:30;0.90;99.90
9949;DHT22;5013;51.840;8.276;2022-12-10T17:52:59;0.90;99.90
9949;DHT22;5013;51.840;8.276;2022-12-10T17:55:25;0.90;99.90
9949;DHT22;5013;51.840;8.276;2022-12-10T17:57:51;1.00;1.00
9949;DHT22;5013;51.840;8.276;2022-12-10T18:00:21;0.80;1.00
9949;DHT22;5013;51.840;8.276;2022-12-10T18:02:47;1.00;99.90
9949;DHT22;5013;51.840;8.276;2022-12-10T18:08:34;0.80;99.90
9949;DHT22;5013;51.840;8.276;2022-12-10T18:11:00;0.70;1.00
9949;DHT22;5013;51.840;8.276;2022-12-10T18:13:25;0.80;99.90
9949;DHT22;5013;51.840;8.276;2022-12-10T18:15:51;0.90;1.00
9949;DHT22;5013;51.840;8.276;2022-12-10T18:18:17;0.90;1.00
9949;DHT22;5013;51.840;8.276;2022-12-10T18:20:42;0.90;99.90
9949;DHT22;5013;51.840;8.276;2022-12-10T18:23:10;0.90;1.00
9949;DHT22;5013;51.840;8.276;2022-12-10T18:25:37;0.90;1.00
9949;DHT22;5013;51.840;8.276;2022-12-10T18:31:30;0.80;1.00
9949;DHT22;5013;51.840;8.276;2022-12-10T18:33:59;0.70;1.00
9949;DHT22;5013;51.840;8.276;2022-12-10T18:36:28;0.70;1.00
9949;DHT22;5013;51.840;8.276;2022-12-10T18:38:55;0.70;99.90
9949;DHT22;5013;51.840;8.276;2022-12-10T18:41:22;0.70;99.90
9949;DHT22;5013;51.840;8.276;2022-12-10T18:47:11;0.80;99.90
9949;DHT22;5013;51.840;8.276;2022-12-10T18:49:37;0.50;1.00
9949;DHT22;5013;51.840;8.276;2022-12-10T18:52:03;0.60;1.00
9949;DHT22;5013;51.840;8.276;2022-12-10T18:54:29;0.60;99.90
9949;DHT22;5013;51.840;8.276;2022-12-10T18:56:55;0.50;99.90
9949;DHT22;5013;51.840;8.276;2022-12-10T18:59:20;0.50;99.90
9949;DHT22;5013;51.840;8.276;2022-12-10T19:01:46;0.60;1.00
9949;DHT22;5013;51.840;8.276;2022-12-10T19:04:12;0.60;99.90
9949;DHT22;5013;51.840;8.276;2022-12-10T19:06:38;0.70;1.00
9949;DHT22;5013;51.840;8.276;2022-12-10T19:09:05;0.70;99.90
9949;DHT22;5013;51.840;8.276;2022-12-10T19:14:58;0.70;99.90
9949;DHT22;5013;51.840;8.276;2022-12-10T19:17:58;0.70;1.00
9949;DHT22;5013;51.840;8.276;2022-12-10T19:20:25;0.80;1.00
9949;DHT22;5013;51.840;8.276;2022-12-10T19:22:52;0.80;61.50
9949;DHT22;5013;51.840;8.276;2022-12-10T19:25:18;0.90;1.00
9949;DHT22;5013;51.840;8.276;2022-12-10T19:27:44;0.80;1.00
9949;DHT22;5013;51.840;8.276;2022-12-10T19:30:16;0.80;1.00
9949;DHT22;5013;51.840;8.276;2022-12-10T19:32:42;0.80;35.60
9949;DHT22;5013;51.840;8.276;2022-12-10T19:35:10;0.70;99.90
9949;DHT22;5013;51.840;8.276;2022-12-10T19:37:36;0.70;99.90
9949;DHT22;5013;51.840;8.276;2022-12-10T19:40:03;0.80;1.00
9949;DHT22;5013;51.840;8.276;2022-12-10T19:42:28;0.80;99.90
9949;DHT22;5013;51.840;8.276;2022-12-10T19:44:55;0.90;99.90
9949;DHT22;5013;51.840;8.276;2022-12-10T19:47:22;0.90;1.00
9949;DHT22;5013;51.840;8.276;2022-12-10T19:49:47;1.10;1.00
9949;DHT22;5013;51.840;8.276;2022-12-10T19:52:13;0.80;99.90
9949;DHT22;5013;51.840;8.276;2022-12-10T19:54:38;0.80;1.00
9949;DHT22;5013;51.840;8.276;2022-12-10T19:57:04;0.90;1.00
9949;DHT22;5013;51.840;8.276;2022-12-10T19:59:30;0.70;1.00
9949;DHT22;5013;51.840;8.276;2022-12-10T20:01:55;0.80;1.00
9949;DHT22;5013;51.840;8.276;2022-12-10T20:04:21;0.80;1.00
9949;DHT22;5013;51.840;8.276;2022-12-10T20:06:47;0.80;1.00
9949;DHT22;5013;51.840;8.276;2022-12-10T20:09:17;0.70;99.90
9949;DHT22;5013;51.840;8.276;2022-12-10T20:11:44;0.80;99.90
9949;DHT22;5013;51.840;8.276;2022-12-10T20:14:09;0.80;1.00